createdAt,value
2022-12-25T00:00:42.295Z,87.33
2022-12-25T00:03:08.924Z,87.51
2022-12-25T00:05:38.107Z,86.65
2022-12-25T00:08:04.779Z,87.08
2022-12-25T00:10:31.262Z,86.77
2022-12-25T00:12:59.130Z,86.09
2022-12-25T00:15:25.654Z,86.63
2022-12-25T00:17:52.144Z,87.14
2022-12-25T00:20:18.763Z,86.72
2022-12-25T00:22:45.327Z,86.88
2022-12-25T00:25:11.903Z,87.90
2022-12-25T00:27:38.399Z,87.88
2022-12-25T00:30:07.671Z,89.01
2022-12-25T00:32:35.298Z,89.47
2022-12-25T00:35:01.932Z,89.06
2022-12-25T00:37:28.418Z,90.30
2022-12-25T00:39:54.890Z,89.44
2022-12-25T00:42:21.587Z,88.49
2022-12-25T00:44:48.954Z,86.53
2022-12-25T00:47:17.625Z,87.07
2022-12-25T00:49:44.495Z,86.26
2022-12-25T00:52:11.055Z,86.84
2022-12-25T00:54:37.806Z,86.82
2022-12-25T00:57:04.431Z,86.43
2022-12-25T00:59:31.681Z,86.67
2022-12-25T01:01:58.604Z,87.58
2022-12-25T01:04:26.461Z,87.71
2022-12-25T01:06:52.968Z,87.67
2022-12-25T01:09:22.175Z,87.06
2022-12-25T01:11:48.687Z,86.83
2022-12-25T01:14:15.242Z,86.76
2022-12-25T01:16:41.943Z,86.46
2022-12-25T01:19:08.945Z,87.69
2022-12-25T01:21:36.822Z,87.92
2022-12-25T01:24:03.662Z,88.15
2022-12-25T01:26:30.172Z,89.48
2022-12-25T01:28:56.717Z,89.78
2022-12-25T01:31:24.805Z,90.86
2022-12-25T01:33:51.739Z,91.27
2022-12-25T01:36:19.850Z,90.57
2022-12-25T01:38:48.664Z,90.40
2022-12-25T01:41:17.933Z,91.02
2022-12-25T01:43:58.908Z,89.99
2022-12-25T01:46:25.623Z,90.37
2022-12-25T01:48:53.640Z,90.61
2022-12-25T01:51:25.631Z,90.20
2022-12-25T01:53:56.037Z,91.33
2022-12-25T01:56:22.772Z,91.22
2022-12-25T01:58:49.409Z,91.75
2022-12-25T02:01:16.113Z,91.54
2022-12-25T02:03:42.805Z,91.29
2022-12-25T02:06:09.480Z,91.65
2022-12-25T02:08:36.277Z,92.72
2022-12-25T02:11:04.415Z,91.48
2022-12-25T02:13:31.117Z,92.24
2022-12-25T02:16:04.441Z,92.46
2022-12-25T02:18:42.017Z,93.92
2022-12-25T02:21:29.938Z,92.43
2022-12-25T02:24:12.727Z,93.13
2022-12-25T02:26:59.614Z,92.72
2022-12-25T02:29:33.158Z,92.07
2022-12-25T02:32:04.493Z,91.98
2022-12-25T02:34:36.046Z,92.56
2022-12-25T02:37:08.699Z,90.34
2022-12-25T02:39:44.289Z,90.47
2022-12-25T02:42:18.159Z,90.90
2022-12-25T02:44:49.846Z,89.99
2022-12-25T02:47:17.767Z,89.13
2022-12-25T02:49:45.476Z,89.58
2022-12-25T02:52:15.400Z,90.76
2022-12-25T02:54:50.331Z,90.41
2022-12-25T02:57:20.558Z,90.62
2022-12-25T02:59:50.985Z,89.01
2022-12-25T03:02:18.512Z,89.23
2022-12-25T03:04:46.189Z,88.86
2022-12-25T03:07:16.278Z,89.62
2022-12-25T03:09:48.772Z,89.69
2022-12-25T03:12:22.280Z,90.03
2022-12-25T03:14:50.258Z,90.89
2022-12-25T03:17:16.785Z,91.24
2022-12-25T03:19:43.361Z,91.24
2022-12-25T03:22:13.189Z,89.92
2022-12-25T03:24:40.042Z,89.99
2022-12-25T03:27:06.493Z,90.03
2022-12-25T03:29:34.089Z,90.29
2022-12-25T03:32:11.362Z,89.86
2022-12-25T03:34:42.794Z,90.93
2022-12-25T03:37:21.316Z,90.30
2022-12-25T03:40:03.638Z,90.60
2022-12-25T03:42:37.615Z,90.93
2022-12-25T03:45:09.763Z,89.81
2022-12-25T03:47:39.583Z,89.42
2022-12-25T03:50:12.296Z,90.06
2022-12-25T03:52:40.057Z,89.53
2022-12-25T03:55:09.934Z,90.46
2022-12-25T03:57:36.391Z,89.93
2022-12-25T04:00:03.486Z,90.02
2022-12-25T04:02:37.726Z,90.70
2022-12-25T04:05:04.954Z,91.76
2022-12-25T04:07:31.408Z,90.17
2022-12-25T04:09:57.936Z,91.32
2022-12-25T04:12:24.395Z,91.45
2022-12-25T04:14:51.071Z,90.48
2022-12-25T04:17:17.513Z,91.27
2022-12-25T04:19:45.326Z,90.37
2022-12-25T04:22:11.781Z,91.87
2022-12-25T04:24:38.227Z,91.12
2022-12-25T04:27:04.719Z,91.51
2022-12-25T04:29:31.172Z,89.93
2022-12-25T04:31:57.627Z,90.15
2022-12-25T04:34:24.048Z,88.85
2022-12-25T04:36:51.853Z,89.63
2022-12-25T04:39:18.374Z,88.01
2022-12-25T04:41:44.845Z,89.17
2022-12-25T04:44:11.327Z,89.34
2022-12-25T04:46:37.899Z,89.58
2022-12-25T04:49:04.425Z,89.54
2022-12-25T04:51:30.863Z,88.47
2022-12-25T04:53:58.674Z,89.72
2022-12-25T04:56:25.156Z,89.52
2022-12-25T04:58:51.633Z,89.84
2022-12-25T05:01:18.190Z,89.86
2022-12-25T05:03:44.774Z,87.92
2022-12-25T05:06:11.317Z,86.99
2022-12-25T05:08:37.853Z,87.02
2022-12-25T05:11:10.282Z,87.83
2022-12-25T05:13:37.441Z,87.50
2022-12-25T05:16:07.665Z,86.94
2022-12-25T05:18:34.534Z,88.61
2022-12-25T05:21:01.087Z,88.19
2022-12-25T05:23:27.633Z,89.08
2022-12-25T05:25:54.081Z,89.03
2022-12-25T05:28:21.875Z,89.74
2022-12-25T05:30:48.489Z,92.11
2022-12-25T05:33:15.258Z,92.37
2022-12-25T05:35:41.765Z,92.20
2022-12-25T05:38:08.507Z,92.30
2022-12-25T05:40:38.268Z,92.56
2022-12-25T05:43:04.706Z,92.38
2022-12-25T05:45:32.586Z,91.67
2022-12-25T05:47:59.009Z,90.92
2022-12-25T05:50:25.459Z,91.31
2022-12-25T05:53:08.100Z,90.25
2022-12-25T05:55:36.086Z,90.09
2022-12-25T05:58:02.763Z,89.42
2022-12-25T06:00:29.336Z,89.42
2022-12-25T06:02:57.290Z,89.08
2022-12-25T06:05:24.300Z,89.13
2022-12-25T06:07:50.823Z,90.48
2022-12-25T06:10:17.264Z,91.02
2022-12-25T06:12:43.782Z,91.15
2022-12-25T06:15:10.608Z,91.01
2022-12-25T06:17:37.138Z,92.07
2022-12-25T06:20:41.269Z,92.22
2022-12-25T06:23:18.995Z,91.27
2022-12-25T06:25:45.729Z,91.83
2022-12-25T06:28:17.481Z,91.18
2022-12-25T06:30:44.138Z,91.45
2022-12-25T06:33:10.660Z,90.92
2022-12-25T06:39:32.513Z,90.83
2022-12-25T06:41:59.242Z,92.03
2022-12-25T06:44:25.900Z,92.62
2022-12-25T06:46:53.069Z,92.50
2022-12-25T06:49:19.682Z,92.80
2022-12-25T06:51:46.400Z,93.05
2022-12-25T06:54:16.141Z,93.02
2022-12-25T06:56:47.333Z,93.11
2022-12-25T06:59:14.341Z,93.80
2022-12-25T07:01:46.549Z,94.01
2022-12-25T07:04:16.728Z,93.77
2022-12-25T07:06:43.265Z,93.45
2022-12-25T07:09:09.876Z,93.36
2022-12-25T07:11:36.791Z,93.96
2022-12-25T07:14:05.144Z,93.89
2022-12-25T07:16:31.713Z,94.11
2022-12-25T07:18:59.277Z,94.41
2022-12-25T07:21:25.793Z,94.09
2022-12-25T07:23:52.324Z,94.11
2022-12-25T07:26:21.129Z,93.46
2022-12-25T07:28:47.594Z,93.69
2022-12-25T07:31:17.508Z,93.60
2022-12-25T07:33:44.977Z,93.95
2022-12-25T07:36:12.941Z,92.65
2022-12-25T07:38:40.095Z,93.13
2022-12-25T07:41:08.268Z,93.03
2022-12-25T07:43:34.681Z,91.55
2022-12-25T07:46:01.225Z,92.64
2022-12-25T07:48:29.236Z,92.90
2022-12-25T07:50:57.493Z,93.43
2022-12-25T07:53:23.971Z,93.49
2022-12-25T07:55:57.102Z,93.01
2022-12-25T07:58:23.760Z,92.89
2022-12-25T08:00:50.353Z,92.97
2022-12-25T08:03:17.173Z,94.28
2022-12-25T08:05:45.116Z,93.01
2022-12-25T08:08:11.597Z,92.54
2022-12-25T08:10:38.155Z,95.03
2022-12-25T08:13:09.035Z,93.96
2022-12-25T08:15:39.736Z,94.54
2022-12-25T08:18:06.227Z,93.98
2022-12-25T08:20:33.598Z,93.80
2022-12-25T08:23:01.400Z,93.16
2022-12-25T08:25:27.868Z,94.67
2022-12-25T08:27:54.306Z,94.93
2022-12-25T08:30:22.758Z,95.35
2022-12-25T08:32:49.295Z,94.24
2022-12-25T08:35:15.938Z,93.71
2022-12-25T08:37:42.417Z,95.17
2022-12-25T08:40:11.382Z,94.87
2022-12-25T08:42:37.854Z,93.93
2022-12-25T08:45:04.975Z,92.68
2022-12-25T08:47:31.470Z,92.87
2022-12-25T08:49:57.881Z,92.01
2022-12-25T08:52:24.340Z,92.94
2022-12-25T08:54:50.804Z,93.71
2022-12-25T08:57:18.620Z,93.97
2022-12-25T08:59:45.066Z,93.21
2022-12-25T09:02:12.676Z,93.87
2022-12-25T09:04:41.533Z,94.65
2022-12-25T09:07:11.143Z,95.78
2022-12-25T09:09:37.600Z,95.98
2022-12-25T09:12:08.411Z,95.93
2022-12-25T09:15:32.772Z,95.01
2022-12-25T09:18:01.123Z,95.81
2022-12-25T09:20:32.310Z,97.14
2022-12-25T09:22:58.933Z,95.62
2022-12-25T09:25:25.697Z,96.93
2022-12-25T09:28:07.598Z,95.68
2022-12-25T09:30:37.902Z,96.07
2022-12-25T09:33:04.746Z,95.54
2022-12-25T09:35:31.285Z,95.67
2022-12-25T09:37:57.831Z,94.02
2022-12-25T09:40:28.279Z,94.27
2022-12-25T09:42:56.280Z,92.95
2022-12-25T09:45:26.889Z,91.63
2022-12-25T09:47:56.706Z,91.30
2022-12-25T09:50:33.979Z,92.61
2022-12-25T09:53:05.628Z,92.63
2022-12-25T09:55:35.904Z,94.08
2022-12-25T09:58:10.580Z,94.34
2022-12-25T10:00:41.934Z,94.40
2022-12-25T10:03:26.493Z,93.64
2022-12-25T10:06:07.823Z,93.88
2022-12-25T10:08:54.768Z,92.31
2022-12-25T10:11:32.248Z,94.19
2022-12-25T10:14:10.927Z,95.86
2022-12-25T10:16:46.714Z,94.94
2022-12-25T10:19:31.223Z,97.14
2022-12-25T10:22:00.769Z,96.67
2022-12-25T10:24:33.743Z,98.22
2022-12-25T10:27:03.041Z,100.00
2022-12-25T10:29:31.980Z,100.00
2022-12-25T10:31:58.824Z,100.00
2022-12-25T10:34:27.070Z,100.00
2022-12-25T10:36:53.569Z,100.00
2022-12-25T10:39:21.747Z,100.00
2022-12-25T10:42:01.863Z,100.00
2022-12-25T10:44:28.333Z,100.00
2022-12-25T10:46:56.640Z,100.00
2022-12-25T10:49:25.144Z,100.00
2022-12-25T10:51:52.927Z,100.00
2022-12-25T10:54:22.562Z,100.00
2022-12-25T10:56:53.661Z,100.00
2022-12-25T10:59:20.454Z,100.00
2022-12-25T11:01:51.008Z,100.00
2022-12-25T11:04:22.264Z,100.00
2022-12-25T11:07:05.003Z,100.00
2022-12-25T11:09:31.710Z,100.00
2022-12-25T11:11:59.308Z,100.00
2022-12-25T11:14:26.222Z,100.00
2022-12-25T11:16:52.652Z,100.00
2022-12-25T11:19:30.499Z,100.00
2022-12-25T11:21:58.438Z,100.00
2022-12-25T11:24:28.422Z,100.00
2022-12-25T11:26:56.786Z,100.00
2022-12-25T11:29:30.477Z,100.00
2022-12-25T11:31:59.712Z,100.00
2022-12-25T11:34:31.125Z,100.00
2022-12-25T11:36:59.668Z,100.00
2022-12-25T11:39:31.493Z,100.00
2022-12-25T11:42:02.000Z,100.00
2022-12-25T11:44:38.077Z,100.00
2022-12-25T11:47:13.119Z,100.00
2022-12-25T11:49:49.672Z,100.00
2022-12-25T11:52:18.483Z,100.00
2022-12-25T11:54:51.895Z,100.00
2022-12-25T11:57:18.579Z,100.00
2022-12-25T11:59:52.778Z,100.00
2022-12-25T12:02:28.673Z,100.00
2022-12-25T12:05:06.810Z,99.16
2022-12-25T12:07:34.684Z,98.72
2022-12-25T12:10:14.283Z,98.57
2022-12-25T12:12:50.791Z,98.43
2022-12-25T12:15:26.203Z,97.68
2022-12-25T12:17:52.625Z,98.05
2022-12-25T12:20:29.430Z,98.32
2022-12-25T12:22:56.604Z,98.87
2022-12-25T12:25:25.166Z,99.81
2022-12-25T12:27:59.819Z,98.35
2022-12-25T12:30:32.172Z,99.31
2022-12-25T12:33:00.564Z,96.93
2022-12-25T12:35:31.072Z,97.29
2022-12-25T12:38:00.512Z,98.34
2022-12-25T12:40:32.462Z,97.09
2022-12-25T12:43:00.025Z,96.84
2022-12-25T12:45:30.559Z,97.00
2022-12-25T12:47:58.029Z,97.54
2022-12-25T12:50:36.905Z,97.46
2022-12-25T12:53:21.978Z,97.06
2022-12-25T12:55:50.615Z,97.79
2022-12-25T12:58:27.361Z,97.91
2022-12-25T13:01:11.747Z,97.53
2022-12-25T13:04:00.456Z,97.57
2022-12-25T13:06:33.344Z,97.42
2022-12-25T13:09:09.954Z,97.80
2022-12-25T13:11:42.927Z,97.05
2022-12-25T13:14:15.208Z,97.28
2022-12-25T13:16:45.057Z,98.18
2022-12-25T13:19:14.609Z,98.22
2022-12-25T13:21:50.754Z,97.72
2022-12-25T13:24:20.263Z,97.60
2022-12-25T13:26:48.247Z,97.69
2022-12-25T13:29:29.059Z,97.45
2022-12-25T13:31:56.292Z,95.99
2022-12-25T13:34:28.488Z,95.88
2022-12-25T13:36:56.064Z,96.54
2022-12-25T13:39:23.234Z,96.18
2022-12-25T13:41:53.720Z,97.36
2022-12-25T13:44:22.846Z,97.53
2022-12-25T13:46:50.719Z,97.70
2022-12-25T13:49:20.312Z,100.00
2022-12-25T13:51:47.311Z,100.00
2022-12-25T13:54:16.025Z,100.00
2022-12-25T13:56:49.032Z,100.00
2022-12-25T13:59:19.617Z,100.00
2022-12-25T14:01:47.489Z,100.00
2022-12-25T14:04:15.730Z,100.00
2022-12-25T14:06:42.242Z,100.00
2022-12-25T14:09:09.764Z,100.00
2022-12-25T14:11:36.535Z,100.00
2022-12-25T14:14:07.715Z,100.00
2022-12-25T14:16:35.817Z,99.90
2022-12-25T14:19:02.882Z,99.20
2022-12-25T14:21:32.939Z,98.83
2022-12-25T14:23:59.852Z,97.97
2022-12-25T14:26:29.155Z,97.35
2022-12-25T14:29:02.261Z,98.07
2022-12-25T14:31:29.256Z,98.27
2022-12-25T14:33:58.671Z,97.77
2022-12-25T14:36:26.007Z,97.54
2022-12-25T14:38:57.733Z,97.91
2022-12-25T14:41:28.158Z,96.48
2022-12-25T14:43:55.475Z,97.05
2022-12-25T14:46:23.621Z,96.60
2022-12-25T14:49:00.194Z,96.55
2022-12-25T14:51:28.869Z,96.60
2022-12-25T14:53:57.602Z,96.38
2022-12-25T14:56:26.196Z,96.42
2022-12-25T14:58:54.649Z,94.84
2022-12-25T15:01:27.047Z,93.13
2022-12-25T15:04:05.556Z,94.81
2022-12-25T15:06:32.457Z,95.35
2022-12-25T15:09:00.738Z,95.28
2022-12-25T15:11:28.122Z,95.40
2022-12-25T15:13:54.608Z,94.97
2022-12-25T15:16:22.974Z,95.36
2022-12-25T15:18:50.577Z,95.83
2022-12-25T15:21:25.508Z,96.12
2022-12-25T15:23:52.342Z,96.09
2022-12-25T15:26:18.793Z,96.14
2022-12-25T15:28:45.307Z,96.08
2022-12-25T15:31:19.904Z,96.76
2022-12-25T15:33:46.420Z,96.19
2022-12-25T15:36:12.864Z,95.78
2022-12-25T15:38:40.656Z,95.68
2022-12-25T15:41:12.753Z,95.38
2022-12-25T15:43:40.790Z,94.97
2022-12-25T15:46:09.184Z,95.44
2022-12-25T15:48:35.644Z,95.21
2022-12-25T15:51:02.093Z,95.28
2022-12-25T15:53:28.517Z,95.48
2022-12-25T15:55:56.659Z,95.27
2022-12-25T15:58:23.116Z,95.06
2022-12-25T16:00:50.467Z,94.93
2022-12-25T16:03:16.913Z,94.83
2022-12-25T16:05:43.516Z,94.73
2022-12-25T16:08:09.977Z,94.61
2022-12-25T16:10:38.892Z,94.49
2022-12-25T16:13:07.008Z,94.56
2022-12-25T16:15:33.562Z,93.74
2022-12-25T16:18:00.011Z,93.57
2022-12-25T16:20:26.509Z,93.42
2022-12-25T16:22:53.047Z,93.42
2022-12-25T16:25:20.307Z,93.27
2022-12-25T16:27:47.267Z,94.24
2022-12-25T16:30:17.946Z,93.82
2022-12-25T16:32:45.161Z,93.76
2022-12-25T16:35:12.051Z,93.65
2022-12-25T16:37:39.022Z,93.70
2022-12-25T16:40:06.853Z,93.02
2022-12-25T16:42:33.530Z,93.00
2022-12-25T16:45:00.057Z,92.90
2022-12-25T16:47:27.939Z,93.30
2022-12-25T16:49:54.365Z,93.01
2022-12-25T16:52:20.823Z,93.14
2022-12-25T16:54:47.277Z,93.22
2022-12-25T16:57:13.966Z,93.53
2022-12-25T16:59:40.414Z,93.15
2022-12-25T17:02:07.241Z,93.71
2022-12-25T17:04:35.343Z,94.08
2022-12-25T17:07:01.836Z,93.81
2022-12-25T17:09:28.466Z,94.37
2022-12-25T17:11:54.908Z,93.29
2022-12-25T17:14:21.331Z,92.85
2022-12-25T17:16:47.806Z,91.57
2022-12-25T17:19:17.980Z,90.21
2022-12-25T17:21:46.586Z,88.91
2022-12-25T17:24:13.483Z,88.63
2022-12-25T17:26:40.257Z,87.23
2022-12-25T17:29:06.795Z,86.73
2022-12-25T17:31:33.620Z,86.85
2022-12-25T17:34:01.192Z,86.11
2022-12-25T17:36:27.893Z,86.18
2022-12-25T17:38:55.709Z,86.31
2022-12-25T17:41:22.107Z,85.17
2022-12-25T17:43:48.652Z,85.14
2022-12-25T17:46:16.920Z,85.59
2022-12-25T17:48:43.741Z,85.34
2022-12-25T17:51:12.148Z,85.33
2022-12-25T17:53:40.273Z,85.26
2022-12-25T17:56:09.582Z,84.77
2022-12-25T17:58:36.939Z,84.81
2022-12-25T18:01:06.180Z,85.60
2022-12-25T18:03:32.943Z,84.54
2022-12-25T18:06:00.004Z,84.38
2022-12-25T18:08:26.509Z,84.05
2022-12-25T18:10:52.969Z,84.22
2022-12-25T18:13:20.729Z,84.69
2022-12-25T18:15:47.142Z,84.98
2022-12-25T18:18:13.612Z,84.85
2022-12-25T18:20:41.536Z,84.91
2022-12-25T18:23:08.018Z,84.75
2022-12-25T18:25:34.528Z,85.03
2022-12-25T18:28:02.704Z,84.76
2022-12-25T18:30:30.672Z,84.88
2022-12-25T18:32:57.112Z,84.92
2022-12-25T18:35:23.579Z,84.69
2022-12-25T18:37:50.219Z,84.69
2022-12-25T18:40:16.903Z,85.05
2022-12-25T18:42:43.348Z,85.43
2022-12-25T18:45:12.531Z,85.23
2022-12-25T18:47:40.369Z,85.31
2022-12-25T18:50:08.177Z,85.43
2022-12-25T18:52:50.079Z,85.91
2022-12-25T18:55:17.907Z,85.91
2022-12-25T18:57:44.414Z,85.52
2022-12-25T19:00:11.584Z,86.35
2022-12-25T19:02:38.147Z,86.49
2022-12-25T19:05:06.631Z,86.77
2022-12-25T19:07:33.159Z,86.43
2022-12-25T19:09:59.700Z,86.85
2022-12-25T19:12:26.152Z,86.31
2022-12-25T19:14:52.732Z,85.23
2022-12-25T19:17:19.377Z,86.56
2022-12-25T19:19:46.164Z,86.43
2022-12-25T19:22:13.990Z,87.12
2022-12-25T19:24:40.491Z,86.97
2022-12-25T19:27:07.009Z,86.68
2022-12-25T19:29:33.662Z,86.81
2022-12-25T19:32:00.429Z,86.55
2022-12-25T19:34:27.020Z,86.72
2022-12-25T19:36:53.513Z,87.03
2022-12-25T19:39:21.384Z,86.32
2022-12-25T19:41:48.145Z,87.31
2022-12-25T19:44:14.980Z,86.77
2022-12-25T19:46:41.656Z,86.95
2022-12-25T19:49:11.876Z,87.62
2022-12-25T19:51:40.957Z,87.09
2022-12-25T19:54:07.529Z,87.22
2022-12-25T19:56:35.315Z,87.27
2022-12-25T19:59:01.897Z,86.32
2022-12-25T20:01:29.490Z,86.64
2022-12-25T20:03:56.873Z,86.51
2022-12-25T20:06:26.196Z,86.21
2022-12-25T20:08:54.830Z,85.81
2022-12-25T20:11:23.073Z,85.57
2022-12-25T20:13:51.385Z,86.25
2022-12-25T20:16:17.880Z,86.01
2022-12-25T20:18:44.582Z,86.25
2022-12-25T20:21:13.341Z,86.28
2022-12-25T20:23:40.103Z,87.41
2022-12-25T20:26:06.808Z,86.73
2022-12-25T20:28:36.047Z,87.03
2022-12-25T20:31:07.121Z,87.00
2022-12-25T20:33:34.349Z,87.39
2022-12-25T20:36:02.221Z,87.94
2022-12-25T20:38:28.710Z,87.41
2022-12-25T20:41:25.674Z,87.15
2022-12-25T20:43:45.894Z,87.22
2022-12-25T20:46:14.309Z,87.87
2022-12-25T20:48:40.794Z,87.47
2022-12-25T20:51:08.880Z,87.65
2022-12-25T20:53:35.593Z,87.76
2022-12-25T20:56:02.532Z,88.10
2022-12-25T20:58:29.003Z,88.46
2022-12-25T21:00:56.056Z,88.42
2022-12-25T21:03:24.610Z,88.84
2022-12-25T21:05:51.848Z,88.87
2022-12-25T21:08:19.116Z,88.79
2022-12-25T21:10:46.089Z,88.45
2022-12-25T21:13:12.517Z,88.69
2022-12-25T21:15:43.395Z,89.35
2022-12-25T21:18:09.884Z,88.83
2022-12-25T21:20:37.708Z,89.01
2022-12-25T21:23:04.192Z,88.92
2022-12-25T21:25:30.696Z,89.40
2022-12-25T21:27:57.091Z,89.69
2022-12-25T21:30:23.480Z,89.65
2022-12-25T21:32:50.837Z,89.39
2022-12-25T21:35:17.309Z,88.06
2022-12-25T21:37:45.078Z,89.12
2022-12-25T21:40:16.350Z,89.13
2022-12-25T21:42:43.103Z,88.42
2022-12-25T21:45:09.895Z,88.46
2022-12-25T21:48:02.498Z,88.30
2022-12-25T21:50:22.797Z,87.84
2022-12-25T21:52:50.563Z,87.23
2022-12-25T21:55:17.001Z,87.48
2022-12-25T21:57:43.446Z,86.95
2022-12-25T22:00:12.241Z,86.46
2022-12-25T22:02:38.687Z,86.92
2022-12-25T22:05:06.154Z,86.34
2022-12-25T22:07:32.601Z,85.85
2022-12-25T22:10:00.415Z,85.58
2022-12-25T22:12:33.513Z,86.77
2022-12-25T22:15:01.367Z,86.32
2022-12-25T22:17:29.613Z,86.61
2022-12-25T22:19:56.676Z,86.66
2022-12-25T22:22:25.212Z,86.70
2022-12-25T22:24:53.591Z,86.05
2022-12-25T22:27:22.033Z,85.97
2022-12-25T22:29:48.802Z,86.39
2022-12-25T22:32:16.356Z,85.44
2022-12-25T22:34:43.060Z,85.18
2022-12-25T22:37:13.835Z,85.75
2022-12-25T22:39:40.285Z,85.30
2022-12-25T22:42:06.901Z,85.32
2022-12-25T22:44:34.989Z,85.41
2022-12-25T22:47:01.550Z,85.08
2022-12-25T22:49:29.245Z,85.41
2022-12-25T22:51:56.023Z,85.04
2022-12-25T22:54:23.844Z,86.56
2022-12-25T22:56:52.223Z,84.96
2022-12-25T22:59:21.192Z,85.50
2022-12-25T23:01:49.816Z,85.80
2022-12-25T23:04:16.414Z,86.22
2022-12-25T23:06:42.903Z,87.19
2022-12-25T23:09:13.825Z,86.71
2022-12-25T23:11:42.889Z,88.15
2022-12-25T23:14:11.599Z,88.60
2022-12-25T23:16:38.040Z,88.09
2022-12-25T23:19:06.148Z,88.86
2022-12-25T23:21:32.611Z,89.19
2022-12-25T23:23:59.258Z,89.21
2022-12-25T23:26:25.672Z,89.89
2022-12-25T23:28:52.071Z,91.11
2022-12-25T23:31:22.307Z,92.09
2022-12-25T23:33:48.923Z,92.49
2022-12-25T23:36:16.725Z,91.61
2022-12-25T23:38:43.272Z,92.09
2022-12-25T23:41:09.714Z,91.48
2022-12-25T23:43:36.150Z,92.11
2022-12-25T23:46:02.667Z,92.56
2022-12-25T23:48:29.250Z,92.00
2022-12-25T23:50:55.908Z,91.61
2022-12-25T23:53:23.697Z,91.23
2022-12-25T23:55:55.320Z,90.48
2022-12-25T23:58:22.370Z,90.84
